BVX172 CYYJ-CYYC
Flight info
| Callsign | BVX172 |
|---|---|
| Flight time | 1h 4m |
| Altitude | 35000 |
| Route | HUH DCT CILLI Q983 IGVEP IGVEP7 |
| Aircraft | B738/M-SDE2E3FGHIRWXY/LB1 |
Departure
| Time | 2026-04-28 18:58 |
|---|---|
| Airport | Victoria International Airport (CYYJ) |
Arrival
| Time | 2026-04-28 20:02 |
|---|---|
| Airport | Calgary International Airport (CYYC) |
| Time | Latitude | Longitude | Altitude | Speed | Heading |
|---|---|---|---|---|---|
| 2026-04-28 18:35 | 48.64096 | -123.42912 | 47 ft | 0 kts | 195° |
| 2026-04-28 18:50 | 48.64096 | -123.42911 | 56 ft | 2 kts | 196° |
| 2026-04-28 18:50 | 48.64120 | -123.42903 | 50 ft | 4 kts | 193° |
| 2026-04-28 18:50 | 48.64146 | -123.42892 | 48 ft | 4 kts | 205° |
| 2026-04-28 18:50 | 48.64170 | -123.42872 | 49 ft | 4 kts | 212° |
| 2026-04-28 18:51 | 48.64192 | -123.42854 | 52 ft | 4 kts | 186° |
| 2026-04-28 18:51 | 48.64204 | -123.42855 | 51 ft | 0 kts | 138° |
| 2026-04-28 18:53 | 48.64194 | -123.42842 | 54 ft | 7 kts | 138° |
| 2026-04-28 18:53 | 48.64148 | -123.42744 | 55 ft | 14 kts | 103° |
| 2026-04-28 18:54 | 48.64133 | -123.42606 | 54 ft | 13 kts | 99° |
| 2026-04-28 18:54 | 48.64133 | -123.42485 | 55 ft | 11 kts | 47° |
| 2026-04-28 18:54 | 48.64206 | -123.42503 | 53 ft | 14 kts | 334° |
| 2026-04-28 18:54 | 48.64338 | -123.42609 | 50 ft | 28 kts | 332° |
| 2026-04-28 18:55 | 48.64543 | -123.42773 | 50 ft | 39 kts | 332° |
| 2026-04-28 18:55 | 48.64708 | -123.42904 | 52 ft | 40 kts | 332° |
| 2026-04-28 18:55 | 48.64890 | -123.43064 | 54 ft | 12 kts | 311° |
| 2026-04-28 18:55 | 48.64921 | -123.43186 | 51 ft | 15 kts | 285° |
| 2026-04-28 18:56 | 48.64961 | -123.43400 | 49 ft | 26 kts | 286° |
| 2026-04-28 18:56 | 48.65014 | -123.43676 | 51 ft | 26 kts | 285° |
| 2026-04-28 18:56 | 48.65052 | -123.43845 | 54 ft | 12 kts | 308° |
| 2026-04-28 18:56 | 48.65118 | -123.43914 | 51 ft | 12 kts | 329° |
| 2026-04-28 18:57 | 48.65171 | -123.43879 | 52 ft | 10 kts | 82° |
| 2026-04-28 18:57 | 48.65137 | -123.43686 | 51 ft | 44 kts | 106° |
| 2026-04-28 18:57 | 48.64983 | -123.42882 | 52 ft | 113 kts | 106° |
| 2026-04-28 18:57 | 48.64727 | -123.41485 | 183 ft | 155 kts | 106° |
| 2026-04-28 18:58 | 48.64445 | -123.39913 | 943 ft | 157 kts | 107° |
| 2026-04-28 18:58 | 48.64147 | -123.38319 | 1703 ft | 158 kts | 108° |
| 2026-04-28 18:58 | 48.63808 | -123.36590 | 2179 ft | 187 kts | 108° |
| 2026-04-28 18:58 | 48.63528 | -123.34530 | 2427 ft | 219 kts | 89° |
| 2026-04-28 18:59 | 48.64090 | -123.32287 | 2782 ft | 241 kts | 57° |
| 2026-04-28 18:59 | 48.65065 | -123.30078 | 3141 ft | 261 kts | 56° |
| 2026-04-28 18:59 | 48.66104 | -123.27727 | 3766 ft | 275 kts | 56° |
| 2026-04-28 18:59 | 48.67144 | -123.25333 | 4765 ft | 271 kts | 57° |
| 2026-04-28 19:00 | 48.68177 | -123.22919 | 5689 ft | 275 kts | 57° |
| 2026-04-28 19:00 | 48.69190 | -123.20522 | 6873 ft | 266 kts | 59° |
| 2026-04-28 19:00 | 48.70184 | -123.18124 | 7684 ft | 271 kts | 58° |
| 2026-04-28 19:00 | 48.71191 | -123.15680 | 8483 ft | 276 kts | 58° |
| 2026-04-28 19:01 | 48.72212 | -123.13193 | 9337 ft | 279 kts | 57° |
| 2026-04-28 19:01 | 48.73223 | -123.10720 | 10165 ft | 282 kts | 56° |
| 2026-04-28 19:01 | 48.74291 | -123.08108 | 10517 ft | 302 kts | 55° |
| 2026-04-28 19:01 | 48.75442 | -123.05283 | 10740 ft | 325 kts | 55° |
| 2026-04-28 19:02 | 48.76636 | -123.02350 | 11244 ft | 335 kts | 57° |
| 2026-04-28 19:02 | 48.77871 | -122.99305 | 11928 ft | 341 kts | 55° |
| 2026-04-28 19:02 | 48.79122 | -122.96216 | 12617 ft | 347 kts | 55° |
| 2026-04-28 19:02 | 48.80395 | -122.93065 | 13330 ft | 353 kts | 56° |
| 2026-04-28 19:03 | 48.81687 | -122.89862 | 14090 ft | 358 kts | 56° |
| 2026-04-28 19:03 | 48.82995 | -122.86615 | 14788 ft | 362 kts | 56° |
| 2026-04-28 19:03 | 48.84297 | -122.83382 | 15522 ft | 364 kts | 56° |
| 2026-04-28 19:03 | 48.85624 | -122.80080 | 16280 ft | 368 kts | 57° |
| 2026-04-28 19:04 | 48.86960 | -122.76754 | 17104 ft | 369 kts | 56° |
| 2026-04-28 19:04 | 48.88296 | -122.73423 | 17774 ft | 375 kts | 56° |
| 2026-04-28 19:04 | 48.89666 | -122.70005 | 18442 ft | 380 kts | 56° |
| 2026-04-28 19:04 | 48.91050 | -122.66550 | 19072 ft | 384 kts | 56° |
| 2026-04-28 19:05 | 48.92445 | -122.63058 | 19729 ft | 387 kts | 56° |
| 2026-04-28 19:05 | 48.93789 | -122.59497 | 20345 ft | 392 kts | 62° |
| 2026-04-28 19:05 | 48.94764 | -122.55577 | 20938 ft | 399 kts | 72° |
| 2026-04-28 19:05 | 48.95305 | -122.51456 | 21533 ft | 405 kts | 77° |
| 2026-04-28 19:06 | 48.95743 | -122.47193 | 22105 ft | 409 kts | 78° |
| 2026-04-28 19:06 | 48.96026 | -122.44285 | 22482 ft | 412 kts | 78° |
| 2026-04-28 19:06 | 48.96582 | -122.38526 | 23225 ft | 417 kts | 78° |
| 2026-04-28 19:06 | 48.97016 | -122.34114 | 23760 ft | 422 kts | 78° |
| 2026-04-28 19:07 | 48.97455 | -122.29737 | 24205 ft | 425 kts | 78° |
| 2026-04-28 19:07 | 48.97907 | -122.25274 | 24680 ft | 427 kts | 78° |
| 2026-04-28 19:07 | 48.98366 | -122.20775 | 25153 ft | 430 kts | 77° |
| 2026-04-28 19:07 | 48.98827 | -122.16265 | 25614 ft | 432 kts | 77° |
| 2026-04-28 19:08 | 48.99285 | -122.11778 | 25994 ft | 436 kts | 77° |
| 2026-04-28 19:08 | 48.99751 | -122.07197 | 26454 ft | 438 kts | 77° |
| 2026-04-28 19:08 | 49.00217 | -122.02587 | 26914 ft | 440 kts | 77° |
| 2026-04-28 19:08 | 49.00684 | -121.97951 | 27341 ft | 443 kts | 77° |
| 2026-04-28 19:09 | 49.01147 | -121.93342 | 27733 ft | 446 kts | 77° |
| 2026-04-28 19:09 | 49.01616 | -121.88646 | 28114 ft | 449 kts | 77° |
| 2026-04-28 19:09 | 49.02086 | -121.83919 | 28495 ft | 451 kts | 77° |
| 2026-04-28 19:09 | 49.02552 | -121.79221 | 28879 ft | 454 kts | 77° |
| 2026-04-28 19:10 | 49.03022 | -121.74448 | 29217 ft | 457 kts | 77° |
| 2026-04-28 19:10 | 49.03494 | -121.69623 | 29611 ft | 459 kts | 77° |
| 2026-04-28 19:10 | 49.03966 | -121.64792 | 29977 ft | 462 kts | 77° |
| 2026-04-28 19:10 | 49.04438 | -121.59927 | 30294 ft | 464 kts | 77° |
| 2026-04-28 19:11 | 49.04910 | -121.55047 | 30600 ft | 467 kts | 77° |
| 2026-04-28 19:11 | 49.05376 | -121.50221 | 30966 ft | 466 kts | 77° |
| 2026-04-28 19:11 | 49.05848 | -121.45303 | 31358 ft | 467 kts | 77° |
| 2026-04-28 19:11 | 49.06382 | -121.40411 | 31691 ft | 465 kts | 72° |
| 2026-04-28 19:12 | 49.07329 | -121.35715 | 32081 ft | 458 kts | 62° |
| 2026-04-28 19:12 | 49.08561 | -121.31320 | 32466 ft | 456 kts | 61° |
| 2026-04-28 19:12 | 49.09840 | -121.26889 | 32876 ft | 456 kts | 60° |
| 2026-04-28 19:12 | 49.11125 | -121.22451 | 33274 ft | 455 kts | 60° |
| 2026-04-28 19:13 | 49.12397 | -121.18022 | 33653 ft | 456 kts | 60° |
| 2026-04-28 19:13 | 49.13660 | -121.13579 | 34022 ft | 456 kts | 61° |
| 2026-04-28 19:13 | 49.14899 | -121.09174 | 34411 ft | 456 kts | 60° |
| 2026-04-28 19:13 | 49.16142 | -121.04728 | 34822 ft | 453 kts | 60° |
| 2026-04-28 19:14 | 49.17374 | -121.00296 | 35148 ft | 453 kts | 61° |
| 2026-04-28 19:14 | 49.18610 | -120.95839 | 35135 ft | 456 kts | 61° |
| 2026-04-28 19:14 | 49.21052 | -120.86999 | 35155 ft | 453 kts | 61° |
| 2026-04-28 19:15 | 49.23493 | -120.78129 | 35139 ft | 451 kts | 61° |
| 2026-04-28 19:15 | 49.25517 | -120.70756 | 35162 ft | 450 kts | 60° |
| 2026-04-28 19:16 | 49.28332 | -120.60467 | 35136 ft | 449 kts | 61° |
| 2026-04-28 19:16 | 49.30725 | -120.51683 | 35144 ft | 449 kts | 61° |
| 2026-04-28 19:17 | 49.33130 | -120.42821 | 35137 ft | 449 kts | 61° |
| 2026-04-28 19:17 | 49.35513 | -120.34008 | 35147 ft | 450 kts | 61° |
| 2026-04-28 19:18 | 49.37907 | -120.25118 | 35146 ft | 450 kts | 61° |
| 2026-04-28 19:18 | 49.40294 | -120.16221 | 35120 ft | 450 kts | 61° |
| 2026-04-28 19:19 | 49.42657 | -120.07375 | 35112 ft | 450 kts | 61° |
| 2026-04-28 19:19 | 49.45028 | -119.98468 | 35098 ft | 450 kts | 62° |
| 2026-04-28 19:20 | 49.47393 | -119.89552 | 35109 ft | 450 kts | 62° |
| 2026-04-28 19:20 | 49.49739 | -119.80675 | 35099 ft | 451 kts | 62° |
| 2026-04-28 19:21 | 49.52094 | -119.71726 | 35095 ft | 451 kts | 62° |
| 2026-04-28 19:21 | 49.54445 | -119.62758 | 35086 ft | 451 kts | 62° |
| 2026-04-28 19:22 | 49.55997 | -119.56815 | 35090 ft | 451 kts | 62° |
| 2026-04-28 19:22 | 49.59111 | -119.44851 | 35092 ft | 451 kts | 63° |
| 2026-04-28 19:23 | 49.61425 | -119.35921 | 35088 ft | 451 kts | 63° |
| 2026-04-28 19:23 | 49.63746 | -119.26926 | 35091 ft | 450 kts | 63° |
| 2026-04-28 19:24 | 49.66036 | -119.18016 | 35095 ft | 449 kts | 63° |
| 2026-04-28 19:24 | 49.68338 | -119.09026 | 35100 ft | 450 kts | 63° |
| 2026-04-28 19:25 | 49.70619 | -119.00081 | 35095 ft | 450 kts | 63° |
| 2026-04-28 19:25 | 49.72910 | -118.91063 | 35096 ft | 449 kts | 63° |
| 2026-04-28 19:26 | 49.74802 | -118.83588 | 35101 ft | 449 kts | 63° |
| 2026-04-28 19:26 | 49.77440 | -118.73122 | 35127 ft | 449 kts | 64° |
| 2026-04-28 19:27 | 49.79325 | -118.65614 | 35101 ft | 449 kts | 64° |
| 2026-04-28 19:27 | 49.81952 | -118.55111 | 35100 ft | 450 kts | 64° |
| 2026-04-28 19:28 | 49.83827 | -118.47581 | 35099 ft | 450 kts | 64° |
| 2026-04-28 19:28 | 49.86074 | -118.38522 | 35099 ft | 450 kts | 64° |
| 2026-04-28 19:29 | 49.87932 | -118.31003 | 35112 ft | 449 kts | 65° |
| 2026-04-28 19:29 | 49.90527 | -118.20464 | 35098 ft | 449 kts | 65° |
| 2026-04-28 19:30 | 49.92751 | -118.11391 | 35107 ft | 449 kts | 65° |
| 2026-04-28 19:30 | 49.94967 | -118.02312 | 35106 ft | 449 kts | 65° |
| 2026-04-28 19:31 | 49.97163 | -117.93281 | 35110 ft | 449 kts | 65° |
| 2026-04-28 19:31 | 49.99366 | -117.84179 | 35106 ft | 449 kts | 65° |
| 2026-04-28 19:32 | 50.01562 | -117.75069 | 35116 ft | 450 kts | 65° |
| 2026-04-28 19:32 | 50.03740 | -117.66003 | 35125 ft | 451 kts | 65° |
| 2026-04-28 19:33 | 50.05928 | -117.56851 | 35128 ft | 451 kts | 65° |
| 2026-04-28 19:33 | 50.08098 | -117.47734 | 35133 ft | 451 kts | 65° |
| 2026-04-28 19:34 | 50.10274 | -117.38556 | 35123 ft | 450 kts | 65° |
| 2026-04-28 19:34 | 50.12424 | -117.29448 | 35140 ft | 450 kts | 65° |
| 2026-04-28 19:35 | 50.14585 | -117.20258 | 35132 ft | 450 kts | 66° |
| 2026-04-28 19:35 | 50.16737 | -117.11063 | 35139 ft | 451 kts | 66° |
| 2026-04-28 19:36 | 50.18874 | -117.01896 | 35140 ft | 451 kts | 65° |
| 2026-04-28 19:36 | 50.20997 | -116.92746 | 35132 ft | 450 kts | 66° |
| 2026-04-28 19:37 | 50.22774 | -116.85061 | 35148 ft | 449 kts | 66° |
| 2026-04-28 19:37 | 50.24186 | -116.78938 | 34652 ft | 454 kts | 66° |
| 2026-04-28 19:37 | 50.25254 | -116.74291 | 34115 ft | 452 kts | 66° |
| 2026-04-28 19:38 | 50.26300 | -116.69726 | 33626 ft | 449 kts | 66° |
| 2026-04-28 19:38 | 50.27347 | -116.65145 | 33176 ft | 446 kts | 65° |
| 2026-04-28 19:38 | 50.28387 | -116.60588 | 32709 ft | 442 kts | 65° |
| 2026-04-28 19:38 | 50.29413 | -116.56084 | 32267 ft | 437 kts | 65° |
| 2026-04-28 19:39 | 50.30415 | -116.51675 | 31833 ft | 433 kts | 65° |
| 2026-04-28 19:39 | 50.31420 | -116.47241 | 31404 ft | 429 kts | 65° |
| 2026-04-28 19:39 | 50.32416 | -116.42846 | 30971 ft | 426 kts | 65° |
| 2026-04-28 19:39 | 50.33403 | -116.38480 | 30547 ft | 424 kts | 65° |
| 2026-04-28 19:40 | 50.34372 | -116.34190 | 30106 ft | 421 kts | 66° |
| 2026-04-28 19:40 | 50.35345 | -116.29868 | 29609 ft | 418 kts | 66° |
| 2026-04-28 19:40 | 50.36306 | -116.25587 | 29207 ft | 413 kts | 65° |
| 2026-04-28 19:40 | 50.37254 | -116.21363 | 28715 ft | 410 kts | 65° |
| 2026-04-28 19:41 | 50.38193 | -116.17165 | 28289 ft | 406 kts | 65° |
| 2026-04-28 19:41 | 50.39123 | -116.12999 | 27840 ft | 401 kts | 66° |
| 2026-04-28 19:41 | 50.40026 | -116.08947 | 27427 ft | 397 kts | 66° |
| 2026-04-28 19:41 | 50.40930 | -116.04881 | 27008 ft | 393 kts | 66° |
| 2026-04-28 19:42 | 50.41831 | -116.00830 | 26571 ft | 390 kts | 66° |
| 2026-04-28 19:42 | 50.42718 | -115.96831 | 26158 ft | 387 kts | 66° |
| 2026-04-28 19:42 | 50.43587 | -115.92906 | 25751 ft | 384 kts | 66° |
| 2026-04-28 19:42 | 50.44176 | -115.90242 | 25478 ft | 382 kts | 66° |
| 2026-04-28 19:43 | 50.45323 | -115.85048 | 24943 ft | 379 kts | 66° |
| 2026-04-28 19:43 | 50.46181 | -115.81151 | 24541 ft | 377 kts | 66° |
| 2026-04-28 19:43 | 50.47033 | -115.77274 | 24147 ft | 374 kts | 66° |
| 2026-04-28 19:43 | 50.47880 | -115.73415 | 23748 ft | 373 kts | 66° |
| 2026-04-28 19:44 | 50.48721 | -115.69574 | 23268 ft | 371 kts | 66° |
| 2026-04-28 19:44 | 50.49555 | -115.65757 | 22836 ft | 367 kts | 67° |
| 2026-04-28 19:44 | 50.50368 | -115.62030 | 22442 ft | 364 kts | 67° |
| 2026-04-28 19:44 | 50.51184 | -115.58284 | 22038 ft | 361 kts | 67° |
| 2026-04-28 19:45 | 50.51994 | -115.54560 | 21634 ft | 358 kts | 67° |
| 2026-04-28 19:45 | 50.52796 | -115.50868 | 21249 ft | 356 kts | 68° |
| 2026-04-28 19:45 | 50.53583 | -115.47233 | 20848 ft | 354 kts | 68° |
| 2026-04-28 19:45 | 50.54368 | -115.43593 | 20485 ft | 350 kts | 68° |
| 2026-04-28 19:46 | 50.55141 | -115.39976 | 20137 ft | 347 kts | 68° |
| 2026-04-28 19:46 | 50.55910 | -115.36371 | 19752 ft | 345 kts | 68° |
| 2026-04-28 19:46 | 50.56671 | -115.32798 | 19364 ft | 343 kts | 68° |
| 2026-04-28 19:46 | 50.57429 | -115.29235 | 18998 ft | 341 kts | 68° |
| 2026-04-28 19:47 | 50.58169 | -115.25749 | 18632 ft | 340 kts | 68° |
| 2026-04-28 19:47 | 50.58914 | -115.22224 | 18210 ft | 338 kts | 69° |
| 2026-04-28 19:47 | 50.59651 | -115.18722 | 17810 ft | 335 kts | 69° |
| 2026-04-28 19:47 | 50.60382 | -115.15240 | 17433 ft | 334 kts | 69° |
| 2026-04-28 19:48 | 50.61111 | -115.11766 | 17017 ft | 333 kts | 69° |
| 2026-04-28 19:48 | 50.61827 | -115.08344 | 16650 ft | 331 kts | 69° |
| 2026-04-28 19:48 | 50.62546 | -115.04910 | 16286 ft | 329 kts | 68° |
| 2026-04-28 19:48 | 50.63279 | -115.01492 | 15914 ft | 328 kts | 68° |
| 2026-04-28 19:49 | 50.64013 | -114.98100 | 15573 ft | 326 kts | 68° |
| 2026-04-28 19:49 | 50.64741 | -114.94728 | 15193 ft | 325 kts | 69° |
| 2026-04-28 19:49 | 50.65466 | -114.91362 | 14826 ft | 323 kts | 68° |
| 2026-04-28 19:49 | 50.66176 | -114.88054 | 14479 ft | 321 kts | 70° |
| 2026-04-28 19:50 | 50.67590 | -114.81368 | 13754 ft | 324 kts | 70° |
| 2026-04-28 19:50 | 50.68272 | -114.78053 | 13541 ft | 317 kts | 69° |
| 2026-04-28 19:50 | 50.68945 | -114.74792 | 13405 ft | 308 kts | 71° |
| 2026-04-28 19:51 | 50.69601 | -114.71616 | 13258 ft | 300 kts | 70° |
| 2026-04-28 19:51 | 50.70239 | -114.68526 | 13137 ft | 291 kts | 69° |
| 2026-04-28 19:51 | 50.70956 | -114.65651 | 12980 ft | 281 kts | 54° |
| 2026-04-28 19:51 | 50.72228 | -114.63392 | 12760 ft | 272 kts | 42° |
| 2026-04-28 19:52 | 50.73553 | -114.61266 | 12500 ft | 271 kts | 43° |
| 2026-04-28 19:52 | 50.74870 | -114.59130 | 12257 ft | 271 kts | 43° |
| 2026-04-28 19:52 | 50.76186 | -114.56983 | 12020 ft | 272 kts | 43° |
| 2026-04-28 19:52 | 50.77490 | -114.54857 | 11756 ft | 274 kts | 43° |
| 2026-04-28 19:53 | 50.78820 | -114.52687 | 11494 ft | 275 kts | 43° |
| 2026-04-28 19:53 | 50.80154 | -114.50504 | 11222 ft | 275 kts | 43° |
| 2026-04-28 19:53 | 50.81507 | -114.48333 | 10766 ft | 280 kts | 41° |
| 2026-04-28 19:53 | 50.82902 | -114.46215 | 10437 ft | 276 kts | 40° |
| 2026-04-28 19:54 | 50.84273 | -114.44150 | 10145 ft | 269 kts | 40° |
| 2026-04-28 19:54 | 50.85608 | -114.42135 | 9873 ft | 268 kts | 40° |
| 2026-04-28 19:54 | 50.86954 | -114.40097 | 9591 ft | 268 kts | 41° |
| 2026-04-28 19:54 | 50.88297 | -114.38053 | 9307 ft | 267 kts | 41° |
| 2026-04-28 19:55 | 50.89626 | -114.36027 | 9214 ft | 261 kts | 41° |
| 2026-04-28 19:55 | 50.90903 | -114.34015 | 9076 ft | 257 kts | 48° |
| 2026-04-28 19:55 | 50.91629 | -114.31492 | 8882 ft | 260 kts | 79° |
| 2026-04-28 19:55 | 50.91687 | -114.28640 | 8677 ft | 259 kts | 90° |
| 2026-04-28 19:56 | 50.91591 | -114.25781 | 8426 ft | 259 kts | 91° |
| 2026-04-28 19:56 | 50.91490 | -114.22930 | 8183 ft | 258 kts | 91° |
| 2026-04-28 19:56 | 50.91400 | -114.20084 | 7946 ft | 258 kts | 90° |
| 2026-04-28 19:56 | 50.91318 | -114.17272 | 7700 ft | 255 kts | 90° |
| 2026-04-28 19:57 | 50.91264 | -114.14494 | 7452 ft | 249 kts | 87° |
| 2026-04-28 19:57 | 50.91268 | -114.11788 | 7233 ft | 243 kts | 87° |
| 2026-04-28 19:57 | 50.91276 | -114.09106 | 7018 ft | 242 kts | 87° |
| 2026-04-28 19:57 | 50.91275 | -114.06458 | 6751 ft | 245 kts | 88° |
| 2026-04-28 19:58 | 50.91425 | -114.03779 | 6536 ft | 240 kts | 66° |
| 2026-04-28 19:58 | 50.92379 | -114.01793 | 6545 ft | 225 kts | 28° |
| 2026-04-28 19:58 | 50.93872 | -114.01254 | 6522 ft | 220 kts | 350° |
| 2026-04-28 19:58 | 50.95326 | -114.01783 | 6396 ft | 217 kts | 351° |
| 2026-04-28 19:59 | 50.96815 | -114.02011 | 6134 ft | 214 kts | 355° |
| 2026-04-28 19:59 | 50.98295 | -114.02123 | 5841 ft | 211 kts | 358° |
| 2026-04-28 19:59 | 50.99740 | -114.02138 | 5560 ft | 202 kts | 359° |
| 2026-04-28 19:59 | 51.01106 | -114.02135 | 5291 ft | 190 kts | 359° |
| 2026-04-28 20:00 | 51.02393 | -114.02134 | 5040 ft | 179 kts | 359° |
| 2026-04-28 20:00 | 51.03576 | -114.02134 | 4802 ft | 166 kts | 360° |
| 2026-04-28 20:00 | 51.04672 | -114.02134 | 4593 ft | 153 kts | 0° |
| 2026-04-28 20:00 | 51.05728 | -114.02134 | 4366 ft | 151 kts | 0° |
| 2026-04-28 20:01 | 51.06767 | -114.02134 | 4144 ft | 149 kts | 2° |
| 2026-04-28 20:01 | 51.07818 | -114.02132 | 3985 ft | 156 kts | 2° |
| 2026-04-28 20:01 | 51.08898 | -114.02143 | 3791 ft | 155 kts | 2° |
| 2026-04-28 20:01 | 51.09951 | -114.02137 | 3579 ft | 147 kts | 2° |
| 2026-04-28 20:02 | 51.10886 | -114.02137 | 3561 ft | 118 kts | 360° |
| 2026-04-28 20:02 | 51.11585 | -114.02136 | 3555 ft | 82 kts | 360° |
| 2026-04-28 20:02 | 51.12032 | -114.02134 | 3559 ft | 47 kts | 0° |
| 2026-04-28 20:02 | 51.12242 | -114.02113 | 3557 ft | 25 kts | 16° |
| 2026-04-28 20:03 | 51.12388 | -114.01993 | 3556 ft | 23 kts | 29° |
| 2026-04-28 20:03 | 51.12524 | -114.01867 | 3558 ft | 22 kts | 29° |
| 2026-04-28 20:03 | 51.12667 | -114.01795 | 3558 ft | 22 kts | 359° |
| 2026-04-28 20:03 | 51.12827 | -114.01795 | 3558 ft | 26 kts | 0° |
| 2026-04-28 20:04 | 51.12998 | -114.01795 | 3557 ft | 21 kts | 360° |
| 2026-04-28 20:04 | 51.13088 | -114.01777 | 3554 ft | 11 kts | 35° |
| 2026-04-28 20:04 | 51.13156 | -114.01723 | 3557 ft | 11 kts | 2° |
| 2026-04-28 20:04 | 51.13233 | -114.01722 | 3558 ft | 11 kts | 1° |
| 2026-04-28 20:05 | 51.13307 | -114.01721 | 3555 ft | 11 kts | 0° |
| 2026-04-28 20:05 | 51.13362 | -114.01711 | 3558 ft | 7 kts | 28° |
| 2026-04-28 20:05 | 51.13353 | -114.01650 | 3558 ft | 6 kts | 129° |
| 2026-04-28 20:05 | 51.13324 | -114.01597 | 3558 ft | 6 kts | 131° |
| 2026-04-28 20:06 | 51.13313 | -114.01576 | 3558 ft | 0 kts | 130° |